sensor_id;sensor_type;location;lat;lon;timestamp;pressure;altitude;pressure_sealevel;temperature;humidity
44926;BME280;30662;51.210;7.656;2023-06-04T00:00:28;152109.81;;;13.26;47.77
44926;BME280;30662;51.210;7.656;2023-06-04T00:02:54;152089.44;;;13.18;48.38
44926;BME280;30662;51.210;7.656;2023-06-04T00:05:20;152079.31;;;13.14;48.02
44926;BME280;30662;51.210;7.656;2023-06-04T00:07:48;152083.09;;;13.15;47.87
44926;BME280;30662;51.210;7.656;2023-06-04T00:10:13;152103.44;;;13.23;47.58
44926;BME280;30662;51.210;7.656;2023-06-04T00:12:39;152113.63;;;13.28;47.45
44926;BME280;30662;51.210;7.656;2023-06-04T00:15:06;152095.84;;;13.20;47.53
44926;BME280;30662;51.210;7.656;2023-06-04T00:17:32;152053.97;;;13.04;47.97
44926;BME280;30662;51.210;7.656;2023-06-04T00:19:58;152079.31;;;13.14;48.05
44926;BME280;30662;51.210;7.656;2023-06-04T00:22:24;152056.50;;;13.05;48.30
44926;BME280;30662;51.210;7.656;2023-06-04T00:24:50;152047.59;;;13.01;48.34
44926;BME280;30662;51.210;7.656;2023-06-04T00:27:16;152007.03;;;12.85;48.62
44926;BME280;30662;51.210;7.656;2023-06-04T00:29:42;152013.34;;;12.87;48.63
44926;BME280;30662;51.210;7.656;2023-06-04T00:32:08;152010.81;;;12.86;48.55
44926;BME280;30662;51.210;7.656;2023-06-04T00:34:34;151962.63;;;12.67;49.27
44926;BME280;30662;51.210;7.656;2023-06-04T00:37:00;152014.63;;;12.88;48.82
44926;BME280;30662;51.210;7.656;2023-06-04T00:39:27;152018.47;;;12.89;48.38
44926;BME280;30662;51.210;7.656;2023-06-04T00:41:53;152028.56;;;12.93;48.35
44926;BME280;30662;51.210;7.656;2023-06-04T00:44:19;152043.81;;;13.00;48.16
44926;BME280;30662;51.210;7.656;2023-06-04T00:46:47;152021.00;;;12.90;48.53
44926;BME280;30662;51.210;7.656;2023-06-04T00:49:15;151991.81;;;12.79;48.89
44926;BME280;30662;51.210;7.656;2023-06-04T00:51:40;151991.81;;;12.79;48.98
44926;BME280;30662;51.210;7.656;2023-06-04T00:54:07;151980.38;;;12.74;48.89
44926;BME280;30662;51.210;7.656;2023-06-04T00:56:37;151894.22;;;12.39;49.46
44926;BME280;30662;51.210;7.656;2023-06-04T00:59:05;151920.81;;;12.50;49.19
44926;BME280;30662;51.210;7.656;2023-06-04T01:04:24;151877.72;;;12.33;49.21
44926;BME280;30662;51.210;7.656;2023-06-04T01:06:53;151823.22;;;12.11;50.20
44926;BME280;30662;51.210;7.656;2023-06-04T01:09:20;151825.75;;;12.12;50.23
44926;BME280;30662;51.210;7.656;2023-06-04T01:11:46;151866.31;;;12.28;50.03
44926;BME280;30662;51.210;7.656;2023-06-04T01:14:12;151884.03;;;12.35;49.45
44926;BME280;30662;51.210;7.656;2023-06-04T01:16:49;151895.47;;;12.40;49.56
44926;BME280;30662;51.210;7.656;2023-06-04T01:22:02;151891.69;;;12.38;50.00
44926;BME280;30662;51.210;7.656;2023-06-04T01:24:30;151900.53;;;12.42;49.75
44926;BME280;30662;51.210;7.656;2023-06-04T01:26:59;151858.72;;;12.25;49.93
44926;BME280;30662;51.210;7.656;2023-06-04T01:29:26;151815.59;;;12.08;50.27
44926;BME280;30662;51.210;7.656;2023-06-04T01:31:56;151824.50;;;12.11;50.57
44926;BME280;30662;51.210;7.656;2023-06-04T01:34:22;151835.88;;;12.16;50.53
44926;BME280;30662;51.210;7.656;2023-06-04T01:36:48;151876.47;;;12.32;49.77
44926;BME280;30662;51.210;7.656;2023-06-04T01:39:14;151872.63;;;12.31;49.78
44926;BME280;30662;51.210;7.656;2023-06-04T01:41:39;151856.19;;;12.24;49.86
44926;BME280;30662;51.210;7.656;2023-06-04T01:44:05;151835.88;;;12.16;50.38
44926;BME280;30662;51.210;7.656;2023-06-04T01:46:32;151825.75;;;12.12;50.53
44926;BME280;30662;51.210;7.656;2023-06-04T01:48:57;151827.00;;;12.12;50.23
44926;BME280;30662;51.210;7.656;2023-06-04T01:51:23;151840.97;;;12.18;50.12
44926;BME280;30662;51.210;7.656;2023-06-04T01:53:49;151867.56;;;12.29;49.94
44926;BME280;30662;51.210;7.656;2023-06-04T01:56:15;151870.09;;;12.30;50.02
44926;BME280;30662;51.210;7.656;2023-06-04T01:58:41;151848.56;;;12.21;50.68
44926;BME280;30662;51.210;7.656;2023-06-04T02:01:07;151818.13;;;12.09;50.90
44926;BME280;30662;51.210;7.656;2023-06-04T02:03:35;151810.53;;;12.06;51.09
44926;BME280;30662;51.210;7.656;2023-06-04T02:06:03;151802.97;;;12.03;51.36
44926;BME280;30662;51.210;7.656;2023-06-04T02:08:30;151780.09;;;11.94;51.24
44926;BME280;30662;51.210;7.656;2023-06-04T02:10:59;151785.22;;;11.96;51.40
44926;BME280;30662;51.210;7.656;2023-06-04T02:13:24;151789.00;;;11.97;51.26
44926;BME280;30662;51.210;7.656;2023-06-04T02:15:50;151813.06;;;12.07;51.08
44926;BME280;30662;51.210;7.656;2023-06-04T02:18:20;151797.84;;;12.01;51.40
44926;BME280;30662;51.210;7.656;2023-06-04T02:20:59;151762.38;;;11.86;51.78
44926;BME280;30662;51.210;7.656;2023-06-04T02:23:27;151756.03;;;11.84;51.97
44926;BME280;30662;51.210;7.656;2023-06-04T02:25:53;151775.06;;;11.92;51.65
44926;BME280;30662;51.210;7.656;2023-06-04T02:28:19;151789.00;;;11.97;51.29
44926;BME280;30662;51.210;7.656;2023-06-04T02:30:45;151804.22;;;12.03;51.06
44926;BME280;30662;51.210;7.656;2023-06-04T02:33:12;151792.78;;;11.99;51.11
44926;BME280;30662;51.210;7.656;2023-06-04T02:35:38;151776.31;;;11.92;51.26
44926;BME280;30662;51.210;7.656;2023-06-04T02:38:04;151799.13;;;12.01;51.25
44926;BME280;30662;51.210;7.656;2023-06-04T02:40:30;151825.75;;;12.12;51.05
44926;BME280;30662;51.210;7.656;2023-06-04T02:42:56;151776.31;;;11.92;51.63
44926;BME280;30662;51.210;7.656;2023-06-04T02:45:22;151789.00;;;11.97;51.35
44926;BME280;30662;51.210;7.656;2023-06-04T02:47:48;151734.47;;;11.75;51.98
44926;BME280;30662;51.210;7.656;2023-06-04T02:50:15;151757.31;;;11.84;52.05
44926;BME280;30662;51.210;7.656;2023-06-04T02:52:41;151726.84;;;11.72;52.25
44926;BME280;30662;51.210;7.656;2023-06-04T02:55:10;151734.47;;;11.75;52.40
44926;BME280;30662;51.210;7.656;2023-06-04T02:57:39;151749.72;;;11.81;52.26
44926;BME280;30662;51.210;7.656;2023-06-04T03:00:08;151757.31;;;11.84;51.88
44926;BME280;30662;51.210;7.656;2023-06-04T03:02:43;151742.06;;;11.78;52.05
44926;BME280;30662;51.210;7.656;2023-06-04T03:05:11;151677.47;;;11.52;52.89
44926;BME280;30662;51.210;7.656;2023-06-04T03:07:39;151650.84;;;11.42;53.04
44926;BME280;30662;51.210;7.656;2023-06-04T03:10:07;151661.00;;;11.46;52.64
44926;BME280;30662;51.210;7.656;2023-06-04T03:12:34;151653.38;;;11.43;52.67
44926;BME280;30662;51.210;7.656;2023-06-04T03:15:00;151634.38;;;11.35;53.15
44926;BME280;30662;51.210;7.656;2023-06-04T03:17:26;151652.09;;;11.42;52.67
44926;BME280;30662;51.210;7.656;2023-06-04T03:19:52;151672.38;;;11.50;52.21
44926;BME280;30662;51.210;7.656;2023-06-04T03:22:18;151658.47;;;11.45;52.32
44926;BME280;30662;51.210;7.656;2023-06-04T03:24:44;151643.25;;;11.39;52.83
44926;BME280;30662;51.210;7.656;2023-06-04T03:27:10;151669.84;;;11.49;52.39
44926;BME280;30662;51.210;7.656;2023-06-04T03:29:36;151664.78;;;11.47;52.96
44926;BME280;30662;51.210;7.656;2023-06-04T03:32:03;151659.72;;;11.45;52.75
44926;BME280;30662;51.210;7.656;2023-06-04T03:34:29;151617.91;;;11.28;53.20
44926;BME280;30662;51.210;7.656;2023-06-04T03:37:01;151584.97;;;11.15;53.09
44926;BME280;30662;51.210;7.656;2023-06-04T03:39:26;151621.75;;;11.30;52.88
44926;BME280;30662;51.210;7.656;2023-06-04T03:41:53;151635.63;;;11.36;52.59
44926;BME280;30662;51.210;7.656;2023-06-04T03:44:20;151631.84;;;11.34;52.27
44926;BME280;30662;51.210;7.656;2023-06-04T03:46:46;151657.16;;;11.44;52.37
44926;BME280;30662;51.210;7.656;2023-06-04T03:49:13;151652.09;;;11.42;52.31
44926;BME280;30662;51.210;7.656;2023-06-04T03:51:40;151667.31;;;11.48;52.43
44926;BME280;30662;51.210;7.656;2023-06-04T03:54:06;151655.88;;;11.44;52.50
44926;BME280;30662;51.210;7.656;2023-06-04T03:56:32;151658.47;;;11.45;52.49
44926;BME280;30662;51.210;7.656;2023-06-04T03:58:59;151682.53;;;11.54;52.18
44926;BME280;30662;51.210;7.656;2023-06-04T04:01:25;151710.38;;;11.66;51.54
44926;BME280;30662;51.210;7.656;2023-06-04T04:03:51;151702.78;;;11.63;51.77
44926;BME280;30662;51.210;7.656;2023-06-04T04:06:18;151740.78;;;11.78;51.75
44926;BME280;30662;51.210;7.656;2023-06-04T04:08:45;151723.06;;;11.71;51.57
44926;BME280;30662;51.210;7.656;2023-06-04T04:11:12;151733.22;;;11.75;51.67
44926;BME280;30662;51.210;7.656;2023-06-04T04:13:38;151735.72;;;11.76;52.05
44926;BME280;30662;51.210;7.656;2023-06-04T04:16:04;151738.25;;;11.77;51.68
44926;BME280;30662;51.210;7.656;2023-06-04T04:18:36;151756.03;;;11.84;51.57
44926;BME280;30662;51.210;7.656;2023-06-04T04:21:03;151808.00;;;12.05;51.12
44926;BME280;30662;51.210;7.656;2023-06-04T04:23:30;151780.09;;;11.94;51.32
44926;BME280;30662;51.210;7.656;2023-06-04T04:25:58;151806.75;;;12.04;50.90
44926;BME280;30662;51.210;7.656;2023-06-04T04:28:25;151781.38;;;11.94;51.18
44926;BME280;30662;51.210;7.656;2023-06-04T04:30:57;151804.22;;;12.03;50.84
44926;BME280;30662;51.210;7.656;2023-06-04T04:33:23;151824.50;;;12.11;50.46
44926;BME280;30662;51.210;7.656;2023-06-04T04:35:52;151840.97;;;12.18;50.97
44926;BME280;30662;51.210;7.656;2023-06-04T04:38:21;151819.38;;;12.09;51.14
44926;BME280;30662;51.210;7.656;2023-06-04T04:40:50;151792.78;;;11.99;51.31
44926;BME280;30662;51.210;7.656;2023-06-04T04:43:31;151828.28;;;12.13;51.68
44926;BME280;30662;51.210;7.656;2023-06-04T04:45:57;151861.25;;;12.26;51.28
44926;BME280;30662;51.210;7.656;2023-06-04T04:48:24;151882.78;;;12.35;51.60
44926;BME280;30662;51.210;7.656;2023-06-04T04:50:50;151890.38;;;12.38;51.11
44926;BME280;30662;51.210;7.656;2023-06-04T04:53:16;151857.44;;;12.25;51.69
44926;BME280;30662;51.210;7.656;2023-06-04T04:55:42;151891.69;;;12.38;51.86
44926;BME280;30662;51.210;7.656;2023-06-04T04:58:08;151905.59;;;12.44;51.68
44926;BME280;30662;51.210;7.656;2023-06-04T05:00:33;151934.75;;;12.56;51.69
44926;BME280;30662;51.210;7.656;2023-06-04T05:02:59;151951.25;;;12.62;52.25
44926;BME280;30662;51.210;7.656;2023-06-04T05:05:25;151955.03;;;12.64;51.87
44926;BME280;30662;51.210;7.656;2023-06-04T05:07:51;151948.72;;;12.61;52.02
44926;BME280;30662;51.210;7.656;2023-06-04T05:10:17;151944.88;;;12.60;51.77
44926;BME280;30662;51.210;7.656;2023-06-04T05:12:53;151953.78;;;12.63;50.89
44926;BME280;30662;51.210;7.656;2023-06-04T05:15:19;151977.84;;;12.73;51.59
44926;BME280;30662;51.210;7.656;2023-06-04T05:17:46;151977.84;;;12.73;51.41
44926;BME280;30662;51.210;7.656;2023-06-04T05:20:13;151979.13;;;12.74;50.44
44926;BME280;30662;51.210;7.656;2023-06-04T05:22:39;152005.75;;;12.84;50.16
44926;BME280;30662;51.210;7.656;2023-06-04T05:25:05;151991.81;;;12.79;50.55
44926;BME280;30662;51.210;7.656;2023-06-04T05:27:34;151994.34;;;12.80;50.33
44926;BME280;30662;51.210;7.656;2023-06-04T05:30:04;152019.72;;;12.90;50.96
44926;BME280;30662;51.210;7.656;2023-06-04T05:32:30;152029.84;;;12.94;51.66
44926;BME280;30662;51.210;7.656;2023-06-04T05:34:58;152027.31;;;12.93;51.46
44926;BME280;30662;51.210;7.656;2023-06-04T05:37:26;152031.09;;;12.94;51.66
44926;BME280;30662;51.210;7.656;2023-06-04T05:39:56;152066.63;;;13.09;51.64
44926;BME280;30662;51.210;7.656;2023-06-04T05:42:22;152095.84;;;13.20;50.64
44926;BME280;30662;51.210;7.656;2023-06-04T05:44:49;152109.81;;;13.26;50.39
44926;BME280;30662;51.210;7.656;2023-06-04T05:47:16;152079.31;;;13.14;50.60
44926;BME280;30662;51.210;7.656;2023-06-04T05:49:42;152081.84;;;13.15;50.97
44926;BME280;30662;51.210;7.656;2023-06-04T05:52:08;152094.59;;;13.20;49.71
44926;BME280;30662;51.210;7.656;2023-06-04T05:54:34;152121.19;;;13.31;50.42
44926;BME280;30662;51.210;7.656;2023-06-04T05:57:03;152104.72;;;13.24;51.43
44926;BME280;30662;51.210;7.656;2023-06-04T05:59:29;152155.44;;;13.44;50.99
44926;BME280;30662;51.210;7.656;2023-06-04T06:01:56;152105.97;;;13.24;50.09
44926;BME280;30662;51.210;7.656;2023-06-04T06:04:22;152121.19;;;13.31;50.76
44926;BME280;30662;51.210;7.656;2023-06-04T06:06:49;152126.31;;;13.33;52.00
44926;BME280;30662;51.210;7.656;2023-06-04T06:09:16;152175.75;;;13.52;50.18
44926;BME280;30662;51.210;7.656;2023-06-04T06:11:42;152182.13;;;13.55;50.51
44926;BME280;30662;51.210;7.656;2023-06-04T06:14:08;152196.03;;;13.61;50.93
44926;BME280;30662;51.210;7.656;2023-06-04T06:16:34;152227.75;;;13.73;50.57
44926;BME280;30662;51.210;7.656;2023-06-04T06:19:00;152250.59;;;13.83;51.28
44926;BME280;30662;51.210;7.656;2023-06-04T06:21:26;152221.44;;;13.71;50.61
44926;BME280;30662;51.210;7.656;2023-06-04T06:23:54;152258.22;;;13.86;50.42
44926;BME280;30662;51.210;7.656;2023-06-04T06:26:20;152254.44;;;13.84;51.50
44926;BME280;30662;51.210;7.656;2023-06-04T06:28:47;152297.56;;;14.01;50.91
44926;BME280;30662;51.210;7.656;2023-06-04T06:31:13;152296.28;;;14.01;51.02
44926;BME280;30662;51.210;7.656;2023-06-04T06:33:39;152310.28;;;14.06;51.11
44926;BME280;30662;51.210;7.656;2023-06-04T06:36:15;152320.38;;;14.11;51.07
44926;BME280;30662;51.210;7.656;2023-06-04T06:38:42;152347.06;;;14.21;50.66
44926;BME280;30662;51.210;7.656;2023-06-04T06:41:08;152348.34;;;14.22;50.50
44926;BME280;30662;51.210;7.656;2023-06-04T06:43:35;152341.97;;;14.19;50.10
44926;BME280;30662;51.210;7.656;2023-06-04T06:46:00;152362.31;;;14.27;50.27
44926;BME280;30662;51.210;7.656;2023-06-04T06:48:26;152355.94;;;14.25;51.40
44926;BME280;30662;51.210;7.656;2023-06-04T06:50:53;152382.63;;;14.35;50.76
44926;BME280;30662;51.210;7.656;2023-06-04T06:53:19;152366.09;;;14.29;51.00
44926;BME280;30662;51.210;7.656;2023-06-04T06:55:45;152419.47;;;14.50;50.66
44926;BME280;30662;51.210;7.656;2023-06-04T06:58:11;152402.91;;;14.44;51.35
44926;BME280;30662;51.210;7.656;2023-06-04T07:00:37;152423.28;;;14.52;51.81
44926;BME280;30662;51.210;7.656;2023-06-04T07:03:03;152437.25;;;14.57;52.24
44926;BME280;30662;51.210;7.656;2023-06-04T07:05:30;152457.56;;;14.66;52.83
44926;BME280;30662;51.210;7.656;2023-06-04T07:07:56;152491.84;;;14.79;52.64
44926;BME280;30662;51.210;7.656;2023-06-04T07:10:23;152501.97;;;14.83;52.63
44926;BME280;30662;51.210;7.656;2023-06-04T07:12:50;152496.91;;;14.81;52.87
44926;BME280;30662;51.210;7.656;2023-06-04T07:15:15;152512.16;;;14.87;52.32
44926;BME280;30662;51.210;7.656;2023-06-04T07:17:41;152518.47;;;14.90;51.33
44926;BME280;30662;51.210;7.656;2023-06-04T07:20:07;152538.78;;;14.98;51.51
44926;BME280;30662;51.210;7.656;2023-06-04T07:22:34;152564.22;;;15.08;51.85
44926;BME280;30662;51.210;7.656;2023-06-04T07:25:00;152588.34;;;15.18;52.00
44926;BME280;30662;51.210;7.656;2023-06-04T07:27:27;152599.78;;;15.23;51.27
44926;BME280;30662;51.210;7.656;2023-06-04T07:29:52;152606.13;;;15.25;50.29
44926;BME280;30662;51.210;7.656;2023-06-04T07:32:18;152641.69;;;15.39;49.48
44926;BME280;30662;51.210;7.656;2023-06-04T07:34:44;152655.66;;;15.45;49.63
44926;BME280;30662;51.210;7.656;2023-06-04T07:37:10;152675.97;;;15.53;49.36
44926;BME280;30662;51.210;7.656;2023-06-04T07:39:38;152698.88;;;15.62;48.95
44926;BME280;30662;51.210;7.656;2023-06-04T07:42:04;152725.59;;;15.73;48.37
44926;BME280;30662;51.210;7.656;2023-06-04T07:44:31;152733.19;;;15.76;48.60
44926;BME280;30662;51.210;7.656;2023-06-04T07:46:57;152754.78;;;15.85;46.47
44926;BME280;30662;51.210;7.656;2023-06-04T07:49:23;152772.56;;;15.92;46.11
44926;BME280;30662;51.210;7.656;2023-06-04T07:51:48;152782.75;;;15.96;46.24
44926;BME280;30662;51.210;7.656;2023-06-04T07:54:15;152794.16;;;16.00;43.82
44926;BME280;30662;51.210;7.656;2023-06-04T07:56:42;152803.09;;;16.04;43.94
44926;BME280;30662;51.210;7.656;2023-06-04T07:59:09;152846.28;;;16.21;43.37
44926;BME280;30662;51.210;7.656;2023-06-04T08:01:35;152837.41;;;16.18;43.47
44926;BME280;30662;51.210;7.656;2023-06-04T08:04:01;152825.94;;;16.13;43.43
44926;BME280;30662;51.210;7.656;2023-06-04T08:06:27;152866.66;;;16.30;43.78
44926;BME280;30662;51.210;7.656;2023-06-04T08:08:53;152861.53;;;16.27;43.25
44926;BME280;30662;51.210;7.656;2023-06-04T08:11:20;152899.66;;;16.43;41.98
44926;BME280;30662;51.210;7.656;2023-06-04T08:13:48;152898.38;;;16.42;42.42
44926;BME280;30662;51.210;7.656;2023-06-04T08:16:14;152913.66;;;16.48;43.92
44926;BME280;30662;51.210;7.656;2023-06-04T08:18:40;152973.44;;;16.72;44.19
44926;BME280;30662;51.210;7.656;2023-06-04T08:21:10;153002.69;;;16.84;43.50
44926;BME280;30662;51.210;7.656;2023-06-04T08:23:42;152997.63;;;16.82;41.64
44926;BME280;30662;51.210;7.656;2023-06-04T08:26:08;153002.69;;;16.84;41.33
44926;BME280;30662;51.210;7.656;2023-06-04T08:28:34;153054.84;;;17.05;39.83
44926;BME280;30662;51.210;7.656;2023-06-04T08:31:00;153053.56;;;17.04;39.33
44926;BME280;30662;51.210;7.656;2023-06-04T08:33:27;153043.38;;;17.00;39.36
44926;BME280;30662;51.210;7.656;2023-06-04T08:35:53;153071.38;;;17.12;39.31
44926;BME280;30662;51.210;7.656;2023-06-04T08:38:18;153081.53;;;17.16;39.73
44926;BME280;30662;51.210;7.656;2023-06-04T08:40:44;153122.25;;;17.32;40.27
44926;BME280;30662;51.210;7.656;2023-06-04T08:43:10;153112.06;;;17.28;38.65
44926;BME280;30662;51.210;7.656;2023-06-04T08:45:39;153099.31;;;17.23;38.75
44926;BME280;30662;51.210;7.656;2023-06-04T08:48:09;153099.31;;;17.23;38.80
44926;BME280;30662;51.210;7.656;2023-06-04T08:50:37;153094.25;;;17.21;38.13
44926;BME280;30662;51.210;7.656;2023-06-04T08:53:05;153108.25;;;17.26;38.60
44926;BME280;30662;51.210;7.656;2023-06-04T08:55:32;153099.31;;;17.23;37.19
44926;BME280;30662;51.210;7.656;2023-06-04T08:57:59;153108.25;;;17.26;37.94
44926;BME280;30662;51.210;7.656;2023-06-04T09:00:25;153169.28;;;17.51;38.57
44926;BME280;30662;51.210;7.656;2023-06-04T09:02:52;153198.56;;;17.62;39.29
44926;BME280;30662;51.210;7.656;2023-06-04T09:05:22;153192.22;;;17.60;38.82
44926;BME280;30662;51.210;7.656;2023-06-04T09:07:54;153201.09;;;17.63;39.20
44926;BME280;30662;51.210;7.656;2023-06-04T09:10:24;153211.28;;;17.68;39.72
44926;BME280;30662;51.210;7.656;2023-06-04T09:12:52;153229.16;;;17.75;38.97
44926;BME280;30662;51.210;7.656;2023-06-04T09:15:18;153236.78;;;17.78;38.72
44926;BME280;30662;51.210;7.656;2023-06-04T09:17:44;153231.69;;;17.76;38.90
44926;BME280;30662;51.210;7.656;2023-06-04T09:20:20;153276.19;;;17.94;38.85
44926;BME280;30662;51.210;7.656;2023-06-04T09:22:46;153268.59;;;17.90;39.67
44926;BME280;30662;51.210;7.656;2023-06-04T09:25:20;153290.22;;;17.99;38.52
44926;BME280;30662;51.210;7.656;2023-06-04T09:27:47;153301.69;;;18.04;38.86
44926;BME280;30662;51.210;7.656;2023-06-04T09:30:13;153325.84;;;18.13;39.45
44926;BME280;30662;51.210;7.656;2023-06-04T09:32:39;153353.81;;;18.25;39.91
44926;BME280;30662;51.210;7.656;2023-06-04T09:35:16;153365.28;;;18.29;39.04
44926;BME280;30662;51.210;7.656;2023-06-04T09:37:51;153409.84;;;18.47;39.24
44926;BME280;30662;51.210;7.656;2023-06-04T09:40:18;153468.44;;;18.70;37.99
44926;BME280;30662;51.210;7.656;2023-06-04T09:42:46;153462.06;;;18.68;38.51
44926;BME280;30662;51.210;7.656;2023-06-04T09:45:12;153490.09;;;18.79;37.97
44926;BME280;30662;51.210;7.656;2023-06-04T09:47:42;153490.09;;;18.79;37.22
44926;BME280;30662;51.210;7.656;2023-06-04T09:50:09;153482.47;;;18.76;37.25
44926;BME280;30662;51.210;7.656;2023-06-04T09:52:36;153487.53;;;18.78;37.81
44926;BME280;30662;51.210;7.656;2023-06-04T09:55:03;153538.47;;;18.98;37.14
44926;BME280;30662;51.210;7.656;2023-06-04T09:57:29;153539.75;;;18.99;36.84
44926;BME280;30662;51.210;7.656;2023-06-04T09:59:58;153580.47;;;19.15;36.72
44926;BME280;30662;51.210;7.656;2023-06-04T10:02:25;153623.75;;;19.33;37.32
44926;BME280;30662;51.210;7.656;2023-06-04T10:04:55;153675.97;;;19.53;36.08
44926;BME280;30662;51.210;7.656;2023-06-04T10:07:25;153660.69;;;19.47;36.60
44926;BME280;30662;51.210;7.656;2023-06-04T10:09:52;153683.66;;;19.56;35.30
44926;BME280;30662;51.210;7.656;2023-06-04T10:12:25;153679.78;;;19.55;34.89
44926;BME280;30662;51.210;7.656;2023-06-04T10:15:10;153670.91;;;19.51;35.63
44926;BME280;30662;51.210;7.656;2023-06-04T10:17:37;153795.78;;;20.01;35.29
44926;BME280;30662;51.210;7.656;2023-06-04T10:20:03;153831.47;;;20.16;34.05
44926;BME280;30662;51.210;7.656;2023-06-04T10:22:35;153758.84;;;19.87;34.16
44926;BME280;30662;51.210;7.656;2023-06-04T10:25:01;153819.97;;;20.11;34.33
44926;BME280;30662;51.210;7.656;2023-06-04T10:27:30;153860.75;;;20.27;34.56
44926;BME280;30662;51.210;7.656;2023-06-04T10:29:57;153914.31;;;20.49;34.16
44926;BME280;30662;51.210;7.656;2023-06-04T10:32:27;153913.03;;;20.48;33.34
44926;BME280;30662;51.210;7.656;2023-06-04T10:34:54;153956.41;;;20.65;33.50
44926;BME280;30662;51.210;7.656;2023-06-04T10:37:21;154025.19;;;20.93;33.78
44926;BME280;30662;51.210;7.656;2023-06-04T10:39:55;154062.22;;;21.08;33.34
44926;BME280;30662;51.210;7.656;2023-06-04T10:42:22;154063.50;;;21.08;32.77
44926;BME280;30662;51.210;7.656;2023-06-04T10:44:50;154106.81;;;21.26;32.37
44926;BME280;30662;51.210;7.656;2023-06-04T10:47:24;154128.53;;;21.34;31.69
44926;BME280;30662;51.210;7.656;2023-06-04T10:49:52;154193.59;;;21.60;32.44
44926;BME280;30662;51.210;7.656;2023-06-04T10:52:18;154207.63;;;21.66;32.24
44926;BME280;30662;51.210;7.656;2023-06-04T10:54:45;154203.78;;;21.64;32.71
44926;BME280;30662;51.210;7.656;2023-06-04T10:57:15;154146.41;;;21.41;31.83
44926;BME280;30662;51.210;7.656;2023-06-04T10:59:55;154229.31;;;21.74;33.01
44926;BME280;30662;51.210;7.656;2023-06-04T11:02:22;154253.53;;;21.84;32.43
44926;BME280;30662;51.210;7.656;2023-06-04T11:05:05;154299.47;;;22.02;32.00
44926;BME280;30662;51.210;7.656;2023-06-04T11:07:42;154299.47;;;22.02;32.02
44926;BME280;30662;51.210;7.656;2023-06-04T11:10:10;154319.91;;;22.11;31.89
44926;BME280;30662;51.210;7.656;2023-06-04T11:12:43;154379.88;;;22.35;32.56
44926;BME280;30662;51.210;7.656;2023-06-04T11:15:10;154377.31;;;22.34;31.11
44926;BME280;30662;51.210;7.656;2023-06-04T11:17:36;154332.66;;;22.16;31.85
44926;BME280;30662;51.210;7.656;2023-06-04T11:20:02;154358.19;;;22.26;30.71
44926;BME280;30662;51.210;7.656;2023-06-04T11:22:28;154415.59;;;22.49;30.78
44926;BME280;30662;51.210;7.656;2023-06-04T11:24:57;154384.97;;;22.37;30.79
44926;BME280;30662;51.210;7.656;2023-06-04T11:27:26;154485.78;;;22.77;30.75
44926;BME280;30662;51.210;7.656;2023-06-04T11:30:02;154520.31;;;22.91;30.32
44926;BME280;30662;51.210;7.656;2023-06-04T11:32:28;154558.59;;;23.06;30.04
44926;BME280;30662;51.210;7.656;2023-06-04T11:35:04;154550.91;;;23.03;29.89
44926;BME280;30662;51.210;7.656;2023-06-04T11:37:32;154547.09;;;23.01;29.88
44926;BME280;30662;51.210;7.656;2023-06-04T11:39:58;154559.84;;;23.06;29.29
44926;BME280;30662;51.210;7.656;2023-06-04T11:42:27;154662.00;;;23.47;29.36
44926;BME280;30662;51.210;7.656;2023-06-04T11:44:56;154655.59;;;23.45;29.50
44926;BME280;30662;51.210;7.656;2023-06-04T11:47:23;154679.88;;;23.54;29.13
44926;BME280;30662;51.210;7.656;2023-06-04T11:49:56;154681.16;;;23.55;29.17
44926;BME280;30662;51.210;7.656;2023-06-04T11:52:22;154658.13;;;23.46;29.00
44926;BME280;30662;51.210;7.656;2023-06-04T11:54:49;154696.50;;;23.61;29.28
44926;BME280;30662;51.210;7.656;2023-06-04T11:57:15;154747.56;;;23.81;28.80
44926;BME280;30662;51.210;7.656;2023-06-04T11:59:42;154784.59;;;23.96;28.28
44926;BME280;30662;51.210;7.656;2023-06-04T12:02:08;154822.91;;;24.11;28.28
44926;BME280;30662;51.210;7.656;2023-06-04T12:04:34;154821.66;;;24.11;27.88
44926;BME280;30662;51.210;7.656;2023-06-04T12:07:02;154768.00;;;23.89;28.07
44926;BME280;30662;51.210;7.656;2023-06-04T12:09:32;154828.06;;;24.13;28.33
44926;BME280;30662;51.210;7.656;2023-06-04T12:12:03;154866.38;;;24.29;27.27
44926;BME280;30662;51.210;7.656;2023-06-04T12:14:29;154853.59;;;24.24;26.95
44926;BME280;30662;51.210;7.656;2023-06-04T12:19:22;154861.28;;;24.27;26.95
44926;BME280;30662;51.210;7.656;2023-06-04T12:22:02;154834.44;;;24.16;27.08
44926;BME280;30662;51.210;7.656;2023-06-04T12:24:29;154916.25;;;24.48;27.70
44926;BME280;30662;51.210;7.656;2023-06-04T12:29:28;154866.38;;;24.29;26.96
44926;BME280;30662;51.210;7.656;2023-06-04T12:32:02;154957.13;;;24.65;26.47
44926;BME280;30662;51.210;7.656;2023-06-04T12:34:29;154877.88;;;24.33;27.43
44926;BME280;30662;51.210;7.656;2023-06-04T12:36:55;154877.88;;;24.33;27.13
44926;BME280;30662;51.210;7.656;2023-06-04T12:39:21;154918.81;;;24.50;26.28
44926;BME280;30662;51.210;7.656;2023-06-04T12:41:47;154958.41;;;24.65;26.80
44926;BME280;30662;51.210;7.656;2023-06-04T12:44:12;155014.63;;;24.88;26.37
44926;BME280;30662;51.210;7.656;2023-06-04T12:46:38;155123.28;;;25.31;26.38
44926;BME280;30662;51.210;7.656;2023-06-04T12:49:04;155100.28;;;25.22;25.52
44926;BME280;30662;51.210;7.656;2023-06-04T12:51:31;155081.13;;;25.14;25.61
44926;BME280;30662;51.210;7.656;2023-06-04T12:53:58;155059.38;;;25.06;25.90
44926;BME280;30662;51.210;7.656;2023-06-04T12:56:24;155134.81;;;25.36;25.52
44926;BME280;30662;51.210;7.656;2023-06-04T12:58:51;155110.50;;;25.26;25.89
44926;BME280;30662;51.210;7.656;2023-06-04T13:01:16;154964.78;;;24.68;25.35